Time;durP1;ratioP1;P1;durP2;ratioP2;P2;SDS_P1;SDS_P2;PMS_P1;PMS_P2;Temp;Humidity;BMP_temperature;BMP_pressure;BME280_temperature;BME280_humidity;BME280_pressure;Samples;Min_cycle;Max_cycle;Signal;HPM_P1;HPM_P2
2021/01/07 00:00:57;;;;;;;68.38;11.82;;;1.80;99.90;;;;;;5051371;28;20214;-70
2021/01/07 00:03:23;;;;;;;70.80;12.40;;;1.80;99.90;;;;;;5051919;28;20297;-71
2021/01/07 00:05:50;;;;;;;72.78;13.80;;;1.80;99.90;;;;;;5051661;28;20275;-71
2021/01/07 00:08:16;;;;;;;68.53;12.20;;;1.80;99.90;;;;;;5051497;28;20235;-71
2021/01/07 00:10:43;;;;;;;70.90;12.02;;;1.80;99.90;;;;;;5051402;28;20301;-69
2021/01/07 00:13:10;;;;;;;70.20;13.40;;;1.80;99.90;;;;;;5051568;28;20254;-70
2021/01/07 00:15:36;;;;;;;70.45;13.32;;;1.80;99.90;;;;;;5051084;28;20225;-71
2021/01/07 00:18:04;;;;;;;73.07;13.02;;;1.80;99.90;;;;;;5051425;28;20205;-70
2021/01/07 00:20:31;;;;;;;68.60;11.95;;;1.80;99.90;;;;;;5051470;28;20343;-71
2021/01/07 00:22:58;;;;;;;69.97;12.52;;;1.80;99.90;;;;;;5051553;28;20548;-71
2021/01/07 00:25:24;;;;;;;70.03;13.48;;;1.80;99.90;;;;;;5051423;28;20232;-71
2021/01/07 00:27:50;;;;;;;71.68;14.23;;;1.80;99.90;;;;;;5051071;28;20248;-71
2021/01/07 00:30:18;;;;;;;72.13;13.38;;;1.80;99.90;;;;;;5051159;28;20287;-71
2021/01/07 00:32:44;;;;;;;70.82;13.80;;;1.80;99.90;;;;;;5051359;28;20618;-71
2021/01/07 00:35:12;;;;;;;68.43;12.40;;;1.80;99.90;;;;;;5051123;28;20228;-71
2021/01/07 00:37:38;;;;;;;71.53;13.05;;;1.80;99.90;;;;;;5051077;28;20296;-71
2021/01/07 00:40:06;;;;;;;73.38;13.27;;;1.80;99.90;;;;;;5050934;28;20234;-71
2021/01/07 00:42:32;;;;;;;69.95;13.38;;;1.80;99.90;;;;;;5050936;28;20209;-71
2021/01/07 00:44:59;;;;;;;71.38;12.32;;;1.80;99.90;;;;;;5051424;28;20255;-71
2021/01/07 00:47:25;;;;;;;71.60;13.75;;;1.80;99.90;;;;;;5050823;28;20248;-70
2021/01/07 00:49:51;;;;;;;71.07;13.10;;;1.80;99.90;;;;;;5051127;28;20257;-70
2021/01/07 00:52:19;;;;;;;71.43;13.80;;;1.80;99.90;;;;;;5051165;28;20645;-70
2021/01/07 00:54:45;;;;;;;74.40;13.35;;;1.80;99.90;;;;;;5052471;28;20652;-71
2021/01/07 00:57:11;;;;;;;71.70;14.45;;;1.80;99.90;;;;;;5054806;28;20584;-71
2021/01/07 00:59:38;;;;;;;73.15;13.00;;;1.80;99.90;;;;;;5055108;28;20261;-71
2021/01/07 01:02:05;;;;;;;71.63;13.05;;;1.70;99.90;;;;;;5055092;28;20727;-70
2021/01/07 01:04:31;;;;;;;75.50;15.88;;;1.70;99.90;;;;;;5054883;28;20750;-71
2021/01/07 01:06:57;;;;;;;71.75;14.02;;;1.70;99.90;;;;;;5055170;28;20300;-71
2021/01/07 01:09:24;;;;;;;70.65;13.13;;;1.70;99.90;;;;;;5054569;28;20225;-71
2021/01/07 01:11:51;;;;;;;69.15;12.90;;;1.70;99.90;;;;;;5054789;28;20296;-70
2021/01/07 01:14:20;;;;;;;73.90;13.05;;;1.70;99.90;;;;;;5055042;28;20300;-71
2021/01/07 01:16:46;;;;;;;71.03;13.15;;;1.70;99.90;;;;;;5055120;28;20665;-71
2021/01/07 01:19:13;;;;;;;68.47;12.27;;;1.70;99.90;;;;;;5054281;28;20314;-70
2021/01/07 01:21:40;;;;;;;74.05;13.57;;;1.70;99.90;;;;;;5054566;28;20220;-71
2021/01/07 01:24:07;;;;;;;74.45;14.35;;;1.70;99.90;;;;;;5054641;28;20228;-71
2021/01/07 01:26:34;;;;;;;72.78;13.82;;;1.70;99.90;;;;;;5054390;28;20259;-71
2021/01/07 01:29:00;;;;;;;71.10;13.85;;;1.70;99.90;;;;;;5054223;28;20775;-68
2021/01/07 01:31:27;;;;;;;69.43;12.88;;;1.70;99.90;;;;;;5054570;28;20348;-70
2021/01/07 01:33:53;;;;;;;73.45;13.73;;;1.70;99.90;;;;;;5054470;28;20209;-70
2021/01/07 01:36:25;;;;;;;73.38;13.70;;;1.70;99.90;;;;;;5054299;28;20668;-70
2021/01/07 01:38:51;;;;;;;71.70;13.52;;;1.70;99.90;;;;;;5053802;28;20233;-70
2021/01/07 01:41:17;;;;;;;73.22;14.52;;;1.70;99.90;;;;;;5054295;28;20206;-70
2021/01/07 01:43:44;;;;;;;70.88;13.73;;;1.70;99.90;;;;;;5054550;28;20233;-71
2021/01/07 01:46:11;;;;;;;72.85;13.35;;;1.70;99.90;;;;;;5054176;28;20708;-71
2021/01/07 01:48:39;;;;;;;76.18;14.20;;;1.70;99.90;;;;;;5053723;28;20230;-69
2021/01/07 01:51:06;;;;;;;74.13;13.43;;;1.70;99.90;;;;;;5054115;28;20206;-70
2021/01/07 01:53:33;;;;;;;71.65;13.32;;;1.70;99.90;;;;;;5053792;28;20251;-71
2021/01/07 01:56:00;;;;;;;71.45;13.60;;;1.60;99.90;;;;;;5054244;28;20320;-71
2021/01/07 01:58:28;;;;;;;72.95;13.27;;;1.60;99.90;;;;;;5053563;28;20366;-71
2021/01/07 02:00:56;;;;;;;72.95;15.02;;;1.60;99.90;;;;;;5054074;28;20292;-71
2021/01/07 02:03:22;;;;;;;76.03;14.82;;;1.60;99.90;;;;;;5053795;28;20249;-71
2021/01/07 02:05:49;;;;;;;74.55;14.75;;;1.60;99.90;;;;;;5052758;28;20237;-70
2021/01/07 02:08:16;;;;;;;74.25;13.88;;;1.60;99.90;;;;;;5053355;28;20641;-69
2021/01/07 02:10:43;;;;;;;72.10;13.00;;;1.60;99.90;;;;;;5053750;28;20241;-71
2021/01/07 02:13:09;;;;;;;69.13;12.23;;;1.60;99.90;;;;;;5053675;28;20214;-71
2021/01/07 02:15:40;;;;;;;68.75;12.20;;;1.60;99.90;;;;;;5053576;28;20332;-70
2021/01/07 02:18:08;;;;;;;74.90;14.02;;;1.60;99.90;;;;;;5053415;28;20201;-71
2021/01/07 02:20:37;;;;;;;75.35;13.80;;;1.60;99.90;;;;;;5053289;28;20259;-70
2021/01/07 02:23:04;;;;;;;73.85;13.98;;;1.60;99.90;;;;;;5053753;28;20213;-71
2021/01/07 02:25:30;;;;;;;74.82;13.50;;;1.60;99.90;;;;;;5053330;28;20202;-71
2021/01/07 02:27:56;;;;;;;75.10;13.70;;;1.60;99.90;;;;;;5053274;28;20202;-70
2021/01/07 02:30:23;;;;;;;76.40;14.90;;;1.60;99.90;;;;;;5053336;28;20207;-71
2021/01/07 02:32:50;;;;;;;80.03;13.98;;;1.60;99.90;;;;;;5049538;28;20206;-71
2021/01/07 02:35:16;;;;;;;73.00;13.93;;;1.60;99.90;;;;;;5053192;28;20306;-71
2021/01/07 02:37:45;;;;;;;71.50;13.07;;;1.60;99.90;;;;;;5053294;28;20212;-70
2021/01/07 02:40:13;;;;;;;72.05;12.73;;;1.60;99.90;;;;;;5053049;28;20267;-71
2021/01/07 02:42:39;;;;;;;73.65;12.93;;;1.60;99.90;;;;;;5053138;28;20213;-71
2021/01/07 02:45:08;;;;;;;70.05;13.07;;;1.60;99.90;;;;;;5053056;28;20202;-71
2021/01/07 02:47:34;;;;;;;77.38;13.93;;;1.60;99.90;;;;;;5052865;28;20213;-71
2021/01/07 02:50:01;;;;;;;72.22;13.35;;;1.60;99.90;;;;;;5053072;28;20316;-70
2021/01/07 02:52:27;;;;;;;73.10;14.20;;;1.60;99.90;;;;;;5053092;28;20668;-71
2021/01/07 02:54:55;;;;;;;74.15;14.00;;;1.60;99.90;;;;;;5052898;28;20843;-71
2021/01/07 02:57:21;;;;;;;73.10;13.93;;;1.60;99.90;;;;;;5052667;28;20296;-71
2021/01/07 02:59:47;;;;;;;76.63;14.98;;;1.60;99.90;;;;;;5052664;28;20315;-71
2021/01/07 03:02:13;;;;;;;71.88;13.27;;;1.60;99.90;;;;;;5053080;28;20213;-71
2021/01/07 03:04:40;;;;;;;74.45;14.68;;;1.60;99.90;;;;;;5052626;28;20206;-71
2021/01/07 03:07:07;;;;;;;72.85;13.27;;;1.60;99.90;;;;;;5052923;28;20248;-71
2021/01/07 03:09:33;;;;;;;77.60;14.50;;;1.60;99.90;;;;;;5052320;28;20609;-71
2021/01/07 03:12:13;;;;;;;76.90;14.43;;;1.60;99.90;;;;;;5053301;28;20220;-70
2021/01/07 03:14:40;;;;;;;72.93;13.18;;;1.60;99.90;;;;;;5052416;28;20241;-71
2021/01/07 03:17:06;;;;;;;75.53;14.70;;;1.60;99.90;;;;;;5052276;28;20212;-71
2021/01/07 03:19:33;;;;;;;74.88;13.55;;;1.60;99.90;;;;;;5052199;28;20395;-72
2021/01/07 03:21:59;;;;;;;76.80;13.70;;;1.60;99.90;;;;;;5052640;28;20639;-71
2021/01/07 03:24:25;;;;;;;72.47;12.63;;;1.60;99.90;;;;;;5052134;28;20685;-71
2021/01/07 03:26:52;;;;;;;73.05;11.93;;;1.60;99.90;;;;;;5052323;28;20461;-71
2021/01/07 03:29:19;;;;;;;72.35;12.98;;;1.60;99.90;;;;;;5052175;28;20276;-70
2021/01/07 03:31:45;;;;;;;70.30;12.40;;;1.60;99.90;;;;;;5052446;28;20622;-71
2021/01/07 03:34:12;;;;;;;76.82;13.82;;;1.60;99.90;;;;;;5052291;28;20241;-71
2021/01/07 03:36:38;;;;;;;75.22;13.18;;;1.50;99.90;;;;;;5052115;28;20322;-71
2021/01/07 03:39:05;;;;;;;74.57;12.35;;;1.50;99.90;;;;;;5069450;22;20637;-68
2021/01/07 03:41:31;;;;;;;76.50;14.77;;;1.50;99.90;;;;;;5071671;28;20258;-68
2021/01/07 03:43:57;;;;;;;76.45;15.25;;;1.60;99.90;;;;;;5072349;28;20695;-68
2021/01/07 03:46:25;;;;;;;74.10;15.07;;;1.60;99.90;;;;;;5072204;28;20233;-68
2021/01/07 03:48:51;;;;;;;70.88;12.00;;;1.60;99.90;;;;;;5071619;28;20251;-68
2021/01/07 03:51:17;;;;;;;74.28;14.25;;;1.50;99.90;;;;;;5071756;28;20216;-68
2021/01/07 03:53:43;;;;;;;75.88;13.85;;;1.50;99.90;;;;;;5071859;28;20205;-68
2021/01/07 03:56:10;;;;;;;76.65;14.38;;;1.50;99.90;;;;;;5071669;28;20225;-68
2021/01/07 03:58:36;;;;;;;79.63;15.90;;;1.50;99.90;;;;;;5071588;28;20213;-68
2021/01/07 04:01:03;;;;;;;80.50;15.55;;;1.50;99.90;;;;;;5071857;28;20201;-68
2021/01/07 04:03:30;;;;;;;77.30;14.00;;;1.50;99.90;;;;;;5071754;28;20208;-68
2021/01/07 04:05:57;;;;;;;74.53;14.57;;;1.50;99.90;;;;;;5071706;28;20268;-68
2021/01/07 04:08:23;;;;;;;75.40;14.40;;;1.50;99.90;;;;;;5071275;28;20220;-68
2021/01/07 04:10:49;;;;;;;77.05;13.98;;;1.50;99.90;;;;;;5071420;28;20608;-69
2021/01/07 04:13:16;;;;;;;77.30;15.80;;;1.50;99.90;;;;;;5071546;28;20205;-68
2021/01/07 04:15:42;;;;;;;78.38;14.68;;;1.50;99.90;;;;;;5071446;28;20228;-68
2021/01/07 04:18:08;;;;;;;73.68;13.85;;;1.50;99.90;;;;;;5071462;28;20205;-68
2021/01/07 04:20:36;;;;;;;73.60;13.75;;;1.50;99.90;;;;;;5071237;28;20229;-68
2021/01/07 04:23:02;;;;;;;74.55;15.60;;;1.50;99.90;;;;;;5071389;28;20211;-68
2021/01/07 04:25:28;;;;;;;75.07;15.63;;;1.50;99.90;;;;;;5071614;28;20208;-68
2021/01/07 04:27:55;;;;;;;74.50;13.55;;;1.50;99.90;;;;;;5071625;28;20208;-69
2021/01/07 04:30:21;;;;;;;74.32;13.52;;;1.50;99.90;;;;;;5070495;28;20727;-68
2021/01/07 04:32:48;;;;;;;74.35;13.73;;;1.50;99.90;;;;;;5071353;28;20212;-68
2021/01/07 04:35:14;;;;;;;71.00;12.25;;;1.50;99.90;;;;;;5071186;28;20228;-69
2021/01/07 04:37:42;;;;;;;74.38;15.00;;;1.50;99.90;;;;;;5070911;28;20751;-68
2021/01/07 04:40:09;;;;;;;73.25;14.23;;;1.50;99.90;;;;;;5071104;28;20236;-67
2021/01/07 04:42:35;;;;;;;73.40;13.88;;;1.50;99.90;;;;;;5071431;28;20236;-69
2021/01/07 04:45:03;;;;;;;74.35;14.20;;;1.50;99.90;;;;;;5071271;28;20234;-68
2021/01/07 04:47:30;;;;;;;74.53;14.15;;;1.50;99.90;;;;;;5070991;28;20575;-68
2021/01/07 04:49:58;;;;;;;72.05;12.43;;;1.50;99.90;;;;;;5071142;28;20707;-68
2021/01/07 04:52:25;;;;;;;72.82;13.40;;;1.50;99.90;;;;;;5070906;28;20213;-69
2021/01/07 04:54:52;;;;;;;81.03;16.00;;;1.50;99.90;;;;;;5071210;28;20215;-68
2021/01/07 04:57:19;;;;;;;72.07;12.85;;;1.40;99.90;;;;;;5071260;28;20615;-68
2021/01/07 04:59:46;;;;;;;74.90;14.57;;;1.40;99.90;;;;;;5071185;28;20220;-68
2021/01/07 05:02:14;;;;;;;73.90;12.45;;;1.40;99.90;;;;;;5070898;28;20209;-68
2021/01/07 05:04:50;;;;;;;73.78;13.80;;;1.40;99.90;;;;;;5070938;28;20205;-68
2021/01/07 05:07:17;;;;;;;72.85;14.57;;;1.40;99.90;;;;;;5071004;28;20690;-68
2021/01/07 05:09:44;;;;;;;76.43;13.38;;;1.40;99.90;;;;;;5070455;28;20711;-68
2021/01/07 05:12:12;;;;;;;75.40;14.95;;;1.40;99.90;;;;;;5070944;28;20691;-68
2021/01/07 05:14:43;;;;;;;81.43;14.63;;;1.40;99.90;;;;;;5070853;28;20222;-68
2021/01/07 05:17:10;;;;;;;76.05;12.95;;;1.40;99.90;;;;;;5071417;28;20208;-69
2021/01/07 05:19:37;;;;;;;73.85;14.13;;;1.40;99.90;;;;;;5071331;28;20232;-68
2021/01/07 05:22:04;;;;;;;77.95;14.35;;;1.40;99.90;;;;;;5071150;28;20629;-68
2021/01/07 05:24:31;;;;;;;76.75;14.63;;;1.40;99.90;;;;;;5070785;28;20209;-68
2021/01/07 05:27:03;;;;;;;74.78;15.50;;;1.40;99.90;;;;;;5071002;28;20284;-68
2021/01/07 05:29:31;;;;;;;77.60;14.57;;;1.40;99.90;;;;;;5070533;28;20229;-68
2021/01/07 05:31:57;;;;;;;79.95;14.50;;;1.40;99.90;;;;;;5070581;28;20266;-68
2021/01/07 05:34:24;;;;;;;77.68;14.50;;;1.40;99.90;;;;;;5071057;28;20209;-68
2021/01/07 05:36:56;;;;;;;74.85;15.00;;;1.40;99.90;;;;;;5070680;28;20231;-68
2021/01/07 05:39:22;;;;;;;74.30;14.15;;;1.40;99.90;;;;;;5070583;28;20237;-68
2021/01/07 05:41:52;;;;;;;78.38;13.50;;;1.40;99.90;;;;;;5073718;28;20227;-68
2021/01/07 05:44:23;;;;;;;77.20;14.75;;;1.40;99.90;;;;;;5074635;28;20201;-68
2021/01/07 05:46:50;;;;;;;77.78;14.52;;;1.40;99.90;;;;;;5074250;28;20208;-68
2021/01/07 05:49:19;;;;;;;78.65;14.48;;;1.40;99.90;;;;;;5074309;28;20229;-68
2021/01/07 05:51:47;;;;;;;75.00;14.20;;;1.40;99.90;;;;;;5074153;28;20456;-68
2021/01/07 05:54:14;;;;;;;69.78;13.23;;;1.40;99.90;;;;;;5074348;28;20205;-68
2021/01/07 05:56:44;;;;;;;76.25;13.93;;;1.40;99.90;;;;;;5074065;28;20271;-68
2021/01/07 05:59:12;;;;;;;73.80;15.35;;;1.40;99.90;;;;;;5073823;28;20616;-68
2021/01/07 06:01:42;;;;;;;73.45;13.55;;;1.40;99.90;;;;;;5074188;28;20662;-68
2021/01/07 06:04:11;;;;;;;75.45;14.35;;;1.40;99.90;;;;;;5074125;28;20229;-68
2021/01/07 06:06:39;;;;;;;79.13;14.68;;;1.40;99.90;;;;;;5073917;28;20237;-68
2021/01/07 06:09:06;;;;;;;74.30;15.18;;;1.40;99.90;;;;;;5073546;28;20290;-68
2021/01/07 06:11:35;;;;;;;75.70;14.90;;;1.40;99.90;;;;;;5073682;28;20205;-68
2021/01/07 06:14:03;;;;;;;78.40;16.05;;;1.40;99.90;;;;;;5073767;28;20208;-68
2021/01/07 06:16:29;;;;;;;76.85;14.43;;;1.50;99.90;;;;;;5073814;28;20220;-69
2021/01/07 06:19:37;;;;;;;75.40;15.00;;;1.50;99.90;;;;;;5073554;28;20225;-68
2021/01/07 06:22:10;;;;;;;76.20;14.07;;;1.50;99.90;;;;;;5037540;28;20232;-68
2021/01/07 06:24:38;;;;;;;76.40;13.63;;;1.50;99.90;;;;;;5073847;28;20204;-68
2021/01/07 06:27:23;;;;;;;74.97;14.65;;;1.50;99.90;;;;;;5073738;28;20212;-68
2021/01/07 06:29:49;;;;;;;69.18;13.05;;;1.50;99.90;;;;;;5073130;28;20224;-68
2021/01/07 06:32:18;;;;;;;81.40;15.20;;;1.50;99.90;;;;;;5073248;28;20215;-68
2021/01/07 06:34:46;;;;;;;70.07;13.40;;;1.50;99.90;;;;;;5073628;28;20208;-68
2021/01/07 06:37:13;;;;;;;79.40;13.07;;;1.50;99.90;;;;;;5073447;28;20232;-68
2021/01/07 06:39:43;;;;;;;72.47;14.25;;;1.50;99.90;;;;;;5073019;28;20232;-69
2021/01/07 06:42:17;;;;;;;76.40;13.02;;;1.50;99.90;;;;;;5073293;28;20224;-67
2021/01/07 06:44:45;;;;;;;70.13;12.52;;;1.50;99.90;;;;;;5073038;28;20205;-68
2021/01/07 06:47:21;;;;;;;74.63;13.65;;;1.50;99.90;;;;;;5073406;28;20500;-68
2021/01/07 06:49:49;;;;;;;70.50;11.85;;;1.50;99.90;;;;;;5072937;28;20231;-68
2021/01/07 06:52:20;;;;;;;73.93;12.20;;;1.50;99.90;;;;;;5072389;28;20608;-68
2021/01/07 06:54:47;;;;;;;74.13;11.90;;;1.50;99.90;;;;;;5073122;28;20572;-68
2021/01/07 06:57:15;;;;;;;75.57;13.23;;;1.50;99.90;;;;;;5072707;28;20229;-68
2021/01/07 06:59:55;;;;;;;73.45;11.82;;;1.50;99.90;;;;;;5072418;28;20225;-68
2021/01/07 07:02:22;;;;;;;70.60;12.13;;;1.50;99.90;;;;;;5072908;28;20220;-68
2021/01/07 07:04:49;;;;;;;72.20;12.25;;;1.50;99.90;;;;;;5072834;28;20302;-67
2021/01/07 07:07:57;;;;;;;75.63;12.90;;;1.50;99.90;;;;;;5073366;28;20205;-68
2021/01/07 07:11:02;;;;;;;72.90;12.60;;;1.50;99.90;;;;;;5072892;28;20229;-68
2021/01/07 07:13:31;;;;;;;80.20;12.82;;;1.50;99.90;;;;;;5072871;28;20261;-67
2021/01/07 07:16:03;;;;;;;72.75;13.05;;;1.50;99.90;;;;;;5073386;28;20319;-68
2021/01/07 07:18:34;;;;;;;75.82;12.02;;;1.50;99.90;;;;;;5073029;28;20567;-68
2021/01/07 07:21:14;;;;;;;78.63;14.57;;;1.50;99.90;;;;;;5072498;28;20231;-68
2021/01/07 07:23:42;;;;;;;73.85;13.48;;;1.50;99.90;;;;;;5072595;28;20207;-67
2021/01/07 07:26:12;;;;;;;83.95;15.57;;;1.50;99.90;;;;;;5072333;28;20573;-67
2021/01/07 07:28:42;;;;;;;82.20;14.57;;;1.50;99.90;;;;;;5071898;28;20209;-68
2021/01/07 07:31:09;;;;;;;82.22;14.57;;;1.50;99.90;;;;;;5072481;28;20205;-68
2021/01/07 07:33:36;;;;;;;83.15;15.80;;;1.50;99.90;;;;;;5072465;28;20676;-68
2021/01/07 07:36:04;;;;;;;82.45;16.55;;;1.50;99.90;;;;;;5071930;28;20234;-68
2021/01/07 07:38:32;;;;;;;78.53;15.02;;;1.50;99.90;;;;;;5072048;28;20266;-69
2021/01/07 07:41:03;;;;;;;93.60;17.70;;;1.50;99.90;;;;;;5071706;28;20606;-68
2021/01/07 07:43:31;;;;;;;82.97;17.10;;;1.50;99.90;;;;;;5071971;28;20208;-68
2021/01/07 07:45:59;;;;;;;86.07;17.75;;;1.50;99.90;;;;;;5072464;28;20205;-69
2021/01/07 07:48:27;;;;;;;88.38;17.20;;;1.60;99.90;;;;;;5071643;28;20683;-68
2021/01/07 07:51:05;;;;;;;92.65;17.55;;;1.60;99.90;;;;;;5071844;28;20670;-68
2021/01/07 07:53:31;;;;;;;90.63;17.63;;;1.60;99.90;;;;;;5071712;28;20652;-68
2021/01/07 07:55:58;;;;;;;89.05;16.60;;;1.60;99.90;;;;;;5071902;28;20224;-68
2021/01/07 07:58:26;;;;;;;89.30;16.92;;;1.60;99.90;;;;;;5071599;28;20258;-68
2021/01/07 08:00:55;;;;;;;82.72;15.93;;;1.60;99.90;;;;;;5071737;28;20225;-68
2021/01/07 08:03:25;;;;;;;84.03;15.48;;;1.60;99.90;;;;;;5071170;28;20205;-68
2021/01/07 08:05:52;;;;;;;87.28;15.50;;;1.60;99.90;;;;;;5071251;28;20672;-69
2021/01/07 08:08:22;;;;;;;86.55;16.63;;;1.60;99.90;;;;;;5071625;28;20243;-68
2021/01/07 08:10:49;;;;;;;87.55;18.27;;;1.70;99.90;;;;;;5071876;28;20597;-68
2021/01/07 08:13:18;;;;;;;81.40;16.67;;;1.70;99.90;;;;;;5071693;28;20213;-68
2021/01/07 08:15:48;;;;;;;77.10;15.18;;;1.70;99.90;;;;;;5071564;28;20566;-68
2021/01/07 08:18:16;;;;;;;88.00;17.10;;;1.80;99.90;;;;;;5071575;28;20212;-68
2021/01/07 08:20:42;;;;;;;90.75;17.05;;;1.80;99.90;;;;;;5071189;28;20251;-67
2021/01/07 08:23:10;;;;;;;85.70;17.33;;;1.80;99.90;;;;;;5071958;28;20648;-68
2021/01/07 08:25:36;;;;;;;87.03;15.88;;;1.80;99.90;;;;;;5071592;28;20712;-68
2021/01/07 08:28:12;;;;;;;90.25;18.13;;;1.80;99.90;;;;;;5071224;28;20216;-68
2021/01/07 08:30:42;;;;;;;80.55;16.10;;;1.80;99.90;;;;;;5071245;28;20232;-68
2021/01/07 08:33:13;;;;;;;80.07;15.32;;;1.80;99.90;;;;;;5071158;28;20211;-68
2021/01/07 08:35:40;;;;;;;90.07;17.95;;;1.80;99.90;;;;;;5071321;28;20224;-68
2021/01/07 08:38:06;;;;;;;80.93;15.52;;;1.90;99.90;;;;;;5070990;28;20207;-68
2021/01/07 08:40:33;;;;;;;83.43;16.55;;;1.90;99.90;;;;;;5071100;28;20239;-68
2021/01/07 08:43:11;;;;;;;88.15;19.00;;;2.00;99.90;;;;;;5071164;28;20207;-68
2021/01/07 08:45:37;;;;;;;90.53;17.42;;;2.10;99.90;;;;;;5071353;28;20201;-68
2021/01/07 08:48:05;;;;;;;84.95;17.80;;;2.10;99.90;;;;;;5071121;28;20299;-69
2021/01/07 08:50:33;;;;;;;82.80;16.85;;;2.20;99.90;;;;;;5071230;28;20260;-68
2021/01/07 08:52:59;;;;;;;88.22;19.17;;;2.20;99.90;;;;;;5071238;28;20205;-68
2021/01/07 08:55:43;;;;;;;91.95;18.45;;;2.20;99.90;;;;;;5071060;28;20224;-68
2021/01/07 08:58:10;;;;;;;84.45;18.80;;;2.30;99.90;;;;;;5071223;28;20209;-68
2021/01/07 09:00:36;;;;;;;84.25;16.77;;;2.40;99.90;;;;;;5071015;28;20231;-68
2021/01/07 09:03:03;;;;;;;79.70;16.88;;;2.40;99.90;;;;;;5071092;28;20205;-68
2021/01/07 09:05:29;;;;;;;99.75;20.33;;;2.40;99.90;;;;;;5071005;28;20209;-67
2021/01/07 09:08:06;;;;;;;84.32;19.25;;;2.50;99.90;;;;;;5070829;28;20282;-68
2021/01/07 09:10:33;;;;;;;83.47;18.00;;;2.60;99.90;;;;;;5071235;28;20691;-69
2021/01/07 09:12:59;;;;;;;85.55;19.90;;;2.60;99.90;;;;;;5071279;28;20213;-67
2021/01/07 09:15:26;;;;;;;83.75;18.50;;;2.70;99.90;;;;;;5073477;28;20282;-68
2021/01/07 09:17:55;;;;;;;84.50;17.73;;;2.70;99.90;;;;;;5075375;28;20228;-68
2021/01/07 09:20:28;;;;;;;82.95;17.33;;;2.80;99.90;;;;;;5074714;28;20276;-68
2021/01/07 09:23:02;;;;;;;92.88;18.60;;;2.90;99.90;;;;;;5074794;28;20295;-68
2021/01/07 09:25:29;;;;;;;105.75;18.10;;;3.00;99.90;;;;;;5074654;28;20298;-68
2021/01/07 09:27:57;;;;;;;83.75;17.33;;;3.00;99.90;;;;;;5074506;28;20209;-67
2021/01/07 09:30:24;;;;;;;81.95;18.38;;;3.00;99.90;;;;;;5074501;28;20256;-68
2021/01/07 09:32:51;;;;;;;80.45;17.27;;;3.00;99.90;;;;;;5074659;28;20205;-68
2021/01/07 09:35:17;;;;;;;84.05;18.42;;;3.00;99.90;;;;;;5074393;28;20671;-68
2021/01/07 09:37:44;;;;;;;89.80;18.35;;;3.00;99.90;;;;;;5074274;28;20588;-68
2021/01/07 09:40:11;;;;;;;83.20;18.13;;;3.00;99.90;;;;;;5073765;28;20241;-69
2021/01/07 09:42:39;;;;;;;87.00;18.98;;;3.00;99.90;;;;;;5074434;28;20213;-69
2021/01/07 09:45:08;;;;;;;86.60;17.50;;;3.10;99.90;;;;;;5100889;22;20289;-70
2021/01/07 09:47:36;;;;;;;82.78;18.58;;;3.10;99.90;;;;;;5094635;28;20201;-71
2021/01/07 09:50:03;;;;;;;79.32;17.95;;;3.20;99.90;;;;;;5094135;28;20245;-70
2021/01/07 09:52:29;;;;;;;85.95;20.55;;;3.20;99.90;;;;;;5094303;28;20309;-71
2021/01/07 09:54:56;;;;;;;85.90;19.88;;;3.20;99.90;;;;;;5094559;28;20224;-71
2021/01/07 09:57:22;;;;;;;90.50;21.77;;;3.30;99.90;;;;;;5094334;28;20301;-71
2021/01/07 09:59:49;;;;;;;88.95;21.30;;;3.30;99.90;;;;;;5094115;28;20208;-71
2021/01/07 10:02:15;;;;;;;82.65;19.30;;;3.40;99.90;;;;;;5094386;28;20668;-71
2021/01/07 10:04:43;;;;;;;84.25;19.92;;;3.50;99.90;;;;;;5093956;28;20330;-71
2021/01/07 10:07:10;;;;;;;83.22;18.08;;;3.50;99.90;;;;;;5094395;28;20204;-71
2021/01/07 10:09:37;;;;;;;83.72;18.13;;;3.60;99.90;;;;;;5093943;28;20220;-71
2021/01/07 10:12:04;;;;;;;82.05;18.92;;;3.60;99.90;;;;;;5094022;28;20246;-71
2021/01/07 10:14:31;;;;;;;85.45;18.73;;;3.70;99.90;;;;;;5093785;28;20706;-71
2021/01/07 10:17:00;;;;;;;80.20;20.15;;;3.70;99.90;;;;;;5093885;28;20223;-71
2021/01/07 10:19:28;;;;;;;82.88;19.00;;;3.70;99.90;;;;;;5093422;28;20682;-71
2021/01/07 10:21:59;;;;;;;77.47;17.60;;;3.70;99.90;;;;;;5094237;28;20208;-71
2021/01/07 10:24:26;;;;;;;83.72;19.58;;;3.60;99.90;;;;;;5093832;28;20239;-71
2021/01/07 10:26:56;;;;;;;84.70;18.15;;;3.60;99.90;;;;;;5092828;28;20205;-71
2021/01/07 10:29:22;;;;;;;85.97;19.73;;;3.60;99.90;;;;;;5093449;28;20219;-71
2021/01/07 10:31:49;;;;;;;88.30;19.92;;;3.60;99.90;;;;;;5093591;28;20224;-71
2021/01/07 10:34:18;;;;;;;82.55;18.23;;;3.60;99.90;;;;;;5093808;28;20228;-71
2021/01/07 10:36:50;;;;;;;79.80;18.13;;;3.70;99.90;;;;;;5093639;28;20256;-71
2021/01/07 10:39:20;;;;;;;82.22;18.63;;;3.70;99.90;;;;;;5093784;28;20208;-73
2021/01/07 10:41:49;;;;;;;84.90;20.27;;;3.70;99.90;;;;;;5094301;28;20285;-72
2021/01/07 10:44:18;;;;;;;85.25;18.30;;;3.70;99.90;;;;;;5093511;28;20616;-71
2021/01/07 10:46:45;;;;;;;75.07;16.20;;;3.80;99.90;;;;;;5093565;28;20207;-71
2021/01/07 10:49:13;;;;;;;79.07;17.63;;;3.80;99.90;;;;;;5093355;28;20209;-71
2021/01/07 10:52:13;;;;;;;81.75;18.33;;;3.80;99.90;;;;;;5093307;28;20209;-71
2021/01/07 10:54:51;;;;;;;77.93;17.20;;;3.90;99.90;;;;;;5093494;28;20224;-71
2021/01/07 10:57:43;;;;;;;79.00;17.33;;;3.90;99.90;;;;;;5093293;28;20264;-71
2021/01/07 11:00:13;;;;;;;77.97;17.00;;;4.00;99.90;;;;;;5055008;28;20212;-71
2021/01/07 11:03:00;;;;;;;75.30;16.83;;;4.00;99.90;;;;;;5093050;28;20200;-71
2021/01/07 11:05:31;;;;;;;73.38;14.82;;;4.00;99.90;;;;;;5092908;28;20289;-70
2021/01/07 11:08:14;;;;;;;74.38;14.90;;;4.00;99.90;;;;;;5093281;28;20216;-70
2021/01/07 11:10:44;;;;;;;72.80;14.95;;;4.10;99.90;;;;;;5092950;28;20208;-71
2021/01/07 11:13:11;;;;;;;73.72;13.93;;;4.20;99.90;;;;;;5092847;28;20604;-71
2021/01/07 11:15:41;;;;;;;72.05;13.50;;;4.10;99.90;;;;;;5092680;28;20236;-71
2021/01/07 11:18:11;;;;;;;69.35;12.45;;;4.10;99.90;;;;;;5092635;28;20209;-71
2021/01/07 11:20:42;;;;;;;69.43;12.50;;;4.10;99.90;;;;;;5093224;28;20262;-71
2021/01/07 11:23:09;;;;;;;70.45;13.07;;;4.20;99.90;;;;;;5092941;28;20357;-71
2021/01/07 11:25:37;;;;;;;70.28;12.23;;;4.40;99.90;;;;;;5092786;28;20234;-71
2021/01/07 11:28:04;;;;;;;69.75;12.02;;;4.50;95.80;;;;;;5092580;28;20708;-71
2021/01/07 11:30:31;;;;;;;70.95;12.48;;;4.50;99.90;;;;;;5092757;28;20567;-71
2021/01/07 11:33:02;;;;;;;68.82;12.57;;;4.40;99.90;;;;;;5092952;28;20204;-71
2021/01/07 11:35:30;;;;;;;68.55;11.00;;;4.40;99.90;;;;;;5092589;28;20699;-71
2021/01/07 11:38:00;;;;;;;67.85;11.38;;;4.50;92.50;;;;;;5092400;28;20295;-71
2021/01/07 11:40:35;;;;;;;66.85;9.80;;;4.50;92.90;;;;;;5092107;28;20258;-71
2021/01/07 11:43:40;;;;;;;67.18;11.38;;;4.60;97.00;;;;;;5092703;28;20207;-71
2021/01/07 11:46:11;;;;;;;65.93;9.20;;;4.80;99.90;;;;;;5092404;28;20227;-71
2021/01/07 11:48:42;;;;;;;65.78;9.10;;;4.90;99.90;;;;;;5092278;28;20341;-71
2021/01/07 11:51:11;;;;;;;68.75;11.18;;;4.80;90.40;;;;;;5092054;28;20200;-71
2021/01/07 11:53:38;;;;;;;67.10;10.18;;;4.70;88.30;;;;;;5092210;28;20204;-71
2021/01/07 11:56:05;;;;;;;66.68;11.15;;;4.60;90.70;;;;;;5091923;28;20227;-71
2021/01/07 11:58:34;;;;;;;67.38;10.73;;;4.60;98.10;;;;;;5092016;28;20204;-71
2021/01/07 12:01:01;;;;;;;66.00;9.75;;;4.40;94.80;;;;;;5092079;28;20204;-71
2021/01/07 12:03:32;;;;;;;66.28;9.73;;;4.30;93.80;;;;;;5091749;28;20303;-71
2021/01/07 12:06:01;;;;;;;65.63;9.15;;;4.30;90.90;;;;;;5092250;28;20639;-71
2021/01/07 12:08:38;;;;;;;64.97;8.63;;;4.20;90.30;;;;;;5091428;28;20218;-71
2021/01/07 12:11:08;;;;;;;64.78;9.32;;;4.20;88.60;;;;;;5091763;28;20663;-71
2021/01/07 12:13:40;;;;;;;64.88;9.90;;;4.30;84.20;;;;;;5091670;28;20262;-71
2021/01/07 12:16:18;;;;;;;67.53;9.48;;;4.30;89.00;;;;;;5091585;28;20224;-71
2021/01/07 12:18:49;;;;;;;63.10;8.63;;;4.40;84.00;;;;;;5091719;28;20235;-71
2021/01/07 12:21:18;;;;;;;63.40;8.23;;;4.30;80.90;;;;;;5091853;28;20214;-70
2021/01/07 12:23:46;;;;;;;64.40;9.07;;;4.30;75.60;;;;;;5091545;28;20204;-70
2021/01/07 12:26:14;;;;;;;62.30;8.90;;;4.20;76.40;;;;;;5090782;28;20708;-70
2021/01/07 12:28:43;;;;;;;66.22;10.00;;;4.10;80.10;;;;;;5091435;28;20200;-70
2021/01/07 12:31:13;;;;;;;63.78;7.82;;;4.10;91.00;;;;;;5091257;28;20205;-71
2021/01/07 12:33:53;;;;;;;68.35;9.20;;;4.00;89.50;;;;;;5091496;28;20223;-71
2021/01/07 12:36:26;;;;;;;64.85;8.43;;;3.80;86.90;;;;;;5090907;28;20675;-71
2021/01/07 12:39:04;;;;;;;63.80;8.48;;;3.70;94.00;;;;;;5090762;28;20200;-70
2021/01/07 12:41:41;;;;;;;62.88;8.25;;;3.80;81.40;;;;;;5090399;28;20229;-70
2021/01/07 12:44:12;;;;;;;64.00;9.00;;;3.70;85.90;;;;;;5090958;28;20713;-70
2021/01/07 12:46:44;;;;;;;62.72;8.40;;;3.80;83.60;;;;;;5091480;28;20619;-71